Time;durP1;ratioP1;P1;durP2;ratioP2;P2;SDS_P1;SDS_P2;PMS_P1;PMS_P2;Temp;Humidity;BMP_temperature;BMP_pressure;BME280_temperature;BME280_humidity;BME280_pressure;Samples;Min_cycle;Max_cycle;Signal;HPM_P1;HPM_P2
2022/12/15 00:40:31;;;;;;;49.13;31.47;;;;;;;4.27;59.43;97578.09;6975454;28;20222;-78
2022/12/15 00:43:53;;;;;;;52.80;31.27;;;;;;;4.16;59.47;97573.28;6974982;28;20237;-77
2022/12/15 00:47:15;;;;;;;56.50;33.83;;;;;;;4.25;59.87;97583.63;6974877;28;20667;-77
2022/12/15 00:50:53;;;;;;;58.43;34.23;;;;;;;4.33;60.10;97588.81;6975565;28;20261;-78
2022/12/15 01:23:30;;;;;;;61.20;34.93;;;;;;;3.77;60.67;97597.00;6973876;28;20195;-76
2022/12/15 01:26:53;;;;;;;59.93;35.43;;;;;;;3.85;61.19;97610.19;6979868;28;20299;-77
2022/12/15 01:30:16;;;;;;;58.87;33.13;;;;;;;3.93;60.49;97594.03;6975015;28;20790;-77
2022/12/15 01:33:38;;;;;;;66.43;35.70;;;;;;;4.13;60.36;97627.03;6973818;28;20605;-77
2022/12/15 01:37:00;;;;;;;65.97;35.67;;;;;;;4.27;59.95;97650.13;6974006;28;20317;-77
2022/12/15 01:44:16;;;;;;;62.07;32.60;;;;;;;4.12;60.46;97625.41;6969569;28;20199;-77
2022/12/15 01:47:38;;;;;;;59.23;34.30;;;;;;;4.15;59.66;97655.16;6946434;28;20195;-77
2022/12/15 01:51:04;;;;;;;65.13;34.03;;;;;;;4.11;60.29;97648.56;6946896;28;20326;-77
2022/12/15 01:54:28;;;;;;;54.53;31.37;;;;;;;4.03;60.36;97642.53;6947429;28;20207;-77
2022/12/15 01:57:53;;;;;;;59.17;33.10;;;;;;;4.05;60.78;97656.50;6947149;28;20302;-77
2022/12/15 02:01:16;;;;;;;57.03;32.60;;;;;;;4.10;60.74;97633.59;6947861;28;20341;-77
2022/12/15 02:04:38;;;;;;;60.57;34.27;;;;;;;4.10;60.09;97646.91;6948129;28;20303;-77
2022/12/15 02:08:00;;;;;;;58.83;33.67;;;;;;;4.24;60.59;97646.00;6946891;28;20266;-77
2022/12/15 02:12:04;;;;;;;57.20;31.43;;;;;;;4.18;60.00;97656.63;6947942;28;20254;-77
2022/12/15 02:15:31;;;;;;;60.00;32.30;;;;;;;4.25;58.90;97644.97;6965133;28;20656;-79
2022/12/15 02:18:59;;;;;;;57.50;32.70;;;;;;;3.96;59.97;97613.13;6996252;28;20256;-78
2022/12/15 02:22:27;;;;;;;60.57;35.03;;;;;;;4.67;59.19;97663.53;6949716;28;20186;-79
2022/12/15 02:26:01;;;;;;;50.17;31.53;;;;;;;4.57;58.41;97665.75;6950913;28;20281;-78
2022/12/15 02:29:46;;;;;;;57.03;31.83;;;;;;;4.19;59.29;97666.28;6965819;28;20221;-78
2022/12/15 02:33:15;;;;;;;60.57;32.13;;;;;;;3.99;59.47;97643.94;7002833;28;20217;-77
2022/12/15 02:36:38;;;;;;;56.73;32.00;;;;;;;3.89;59.82;97657.59;7000866;28;20285;-77
2022/12/15 02:40:01;;;;;;;53.03;31.37;;;;;;;3.90;59.32;97664.56;7004310;28;20236;-77
2022/12/15 02:43:22;;;;;;;53.00;30.47;;;;;;;4.19;59.18;97660.94;7005985;28;20690;-77
2022/12/15 02:46:53;;;;;;;49.90;30.37;;;;;;;4.15;58.40;97668.50;7005433;28;20205;-77
2022/12/15 02:50:29;;;;;;;49.83;29.40;;;;;;;4.22;59.18;97671.22;7004579;28;20351;-77
2022/12/15 02:54:06;;;;;;;49.73;30.47;;;;;;;4.21;58.49;97680.22;7005344;28;20235;-77
2022/12/15 02:57:33;;;;;;;56.80;30.70;;;;;;;4.19;58.28;97667.06;7004646;28;20276;-77
2022/12/15 03:01:01;;;;;;;49.73;29.87;;;;;;;4.66;56.47;97661.88;6968489;28;20255;-77
2022/12/15 03:04:22;;;;;;;49.33;29.37;;;;;;;4.74;56.86;97667.09;6955025;28;20241;-77
2022/12/15 03:07:45;;;;;;;50.17;28.40;;;;;;;4.76;56.38;97653.53;6953358;28;20294;-79
2022/12/15 03:11:12;;;;;;;49.67;29.00;;;;;;;4.69;56.35;97671.34;6953338;28;20234;-79
2022/12/15 03:14:34;;;;;;;49.73;29.00;;;;;;;4.22;57.36;97665.88;6961684;28;20206;-78
2022/12/15 03:17:55;;;;;;;58.90;31.83;;;;;;;4.04;58.64;97687.69;6980319;28;20320;-78
2022/12/15 03:21:17;;;;;;;53.07;30.60;;;;;;;3.83;59.69;97684.22;6979629;28;20739;-78
2022/12/15 03:24:40;;;;;;;52.40;29.27;;;;;;;3.87;59.43;97680.13;6980218;28;20210;-77
2022/12/15 03:28:01;;;;;;;51.60;30.70;;;;;;;4.25;59.01;97684.97;6976723;28;20232;-77
2022/12/15 03:31:23;;;;;;;50.53;29.80;;;;;;;4.24;58.46;97688.66;6977253;28;20703;-77
2022/12/15 03:34:45;;;;;;;52.17;29.60;;;;;;;4.35;57.82;97706.81;6977070;28;20206;-77
2022/12/15 03:38:06;;;;;;;53.17;29.93;;;;;;;4.15;58.16;97689.84;6976513;28;20252;-77
2022/12/15 03:41:29;;;;;;;51.63;29.87;;;;;;;4.55;57.58;97696.31;6976869;28;20265;-77
2022/12/15 03:44:51;;;;;;;54.03;29.97;;;;;;;4.42;56.77;97678.34;6976381;28;20800;-78
2022/12/15 03:48:12;;;;;;;54.57;30.93;;;;;;;4.29;57.23;97690.75;6976085;28;20313;-77
2022/12/15 03:51:34;;;;;;;50.93;31.33;;;;;;;3.94;59.07;97686.34;6952070;28;20245;-78
2022/12/15 03:54:55;;;;;;;55.37;31.27;;;;;;;3.98;59.23;97712.44;6948073;28;20297;-77
2022/12/15 03:58:18;;;;;;;56.37;30.83;;;;;;;3.92;59.47;97718.53;6948937;28;20323;-77
2022/12/15 04:01:45;;;;;;;53.33;32.10;;;;;;;4.08;58.79;97712.94;6949119;28;20654;-79
2022/12/15 04:05:17;;;;;;;51.30;28.63;;;;;;;4.00;58.49;97680.25;6947952;28;20278;-77
2022/12/15 04:08:38;;;;;;;49.60;30.10;;;;;;;4.21;58.67;97729.09;6949005;28;20312;-77
2022/12/15 04:12:02;;;;;;;54.80;30.00;;;;;;;4.62;57.46;97722.03;6948809;28;20297;-78
2022/12/15 04:15:25;;;;;;;55.17;31.33;;;;;;;4.17;58.17;97741.13;6948489;28;20211;-77
2022/12/15 04:20:07;;;;;;;54.00;31.20;;;;;;;3.86;58.72;97715.78;6949548;28;20258;-78
2022/12/15 04:22:29;;;;;;;52.37;30.23;;;;;;;4.20;58.05;97740.75;6948170;28;20200;-75
2022/12/15 05:31:51;;;;;;;58.10;30.63;;;;;;;4.22;57.44;97736.06;6967831;28;20203;-79
2022/12/15 05:35:13;;;;;;;54.33;29.73;;;;;;;4.05;58.85;97752.50;6960152;28;20213;-81
2022/12/15 05:38:34;;;;;;;49.60;29.40;;;;;;;4.04;58.83;97748.19;6971759;28;20321;-81
2022/12/15 05:41:56;;;;;;;55.60;29.33;;;;;;;3.94;58.94;97735.16;6995188;28;20236;-80
2022/12/15 05:45:19;;;;;;;55.17;31.33;;;;;;;4.07;59.10;97761.16;6995318;28;20658;-78
2022/12/15 05:48:41;;;;;;;56.37;30.77;;;;;;;3.94;59.25;97737.81;6973771;28;20216;-79
2022/12/15 05:52:03;;;;;;;51.77;29.97;;;;;;;4.76;56.90;97753.13;6978328;28;20214;-78
2022/12/15 05:55:25;;;;;;;49.70;28.53;;;;;;;4.70;56.45;97761.91;6972178;28;20245;-78
2022/12/15 05:58:46;;;;;;;54.40;30.03;;;;;;;3.18;59.80;97737.53;6980457;28;20268;-82
2022/12/15 06:02:09;;;;;;;53.90;30.43;;;;;;;2.96;61.45;97717.16;6981885;28;20210;-78
2022/12/15 06:05:31;;;;;;;55.00;29.73;;;;;;;3.87;60.18;97760.94;6970539;28;20285;-77
2022/12/15 06:08:52;;;;;;;49.57;28.57;;;;;;;4.21;59.36;97745.09;6950976;28;20510;-77
2022/12/15 06:12:26;;;;;;;50.70;29.03;;;;;;;4.83;59.82;97774.56;6947188;28;20314;-76
2022/12/15 06:15:55;;;;;;;52.27;30.33;;;;;;;4.77;58.32;97756.66;6946706;28;20206;-79
2022/12/15 06:19:20;;;;;;;49.17;28.60;;;;;;;4.92;57.46;97742.16;6957020;28;20234;-81
2022/12/15 06:22:41;;;;;;;46.97;27.37;;;;;;;4.77;56.41;97720.06;6958220;28;20277;-79
2022/12/15 06:26:13;;;;;;;45.23;25.67;;;;;;;4.91;55.38;97751.22;6960585;28;20206;-80
2022/12/15 06:29:35;;;;;;;46.40;26.03;;;;;;;3.98;56.95;97740.94;6962682;28;20733;-82
2022/12/15 06:33:12;;;;;;;42.57;25.53;;;;;;;4.57;56.72;97787.69;6963062;28;20221;-82
2022/12/15 06:36:36;;;;;;;43.17;25.40;;;;;;;4.70;56.20;97772.59;6962338;28;20215;-82
2022/12/15 06:40:10;;;;;;;47.30;26.40;;;;;;;4.12;57.34;97766.75;6961631;28;20238;-81
2022/12/15 06:43:32;;;;;;;44.30;25.83;;;;;;;3.99;58.18;97764.75;6996864;28;20666;-75
2022/12/15 06:46:54;;;;;;;46.73;25.40;;;;;;;3.91;57.85;97761.38;6999739;28;20245;-75
2022/12/15 06:50:15;;;;;;;46.87;27.27;;;;;;;4.64;56.41;97769.88;6961644;28;20309;-75
2022/12/15 06:53:39;;;;;;;43.83;25.47;;;;;;;4.55;56.72;97766.50;6951576;28;20323;-76
2022/12/15 06:57:01;;;;;;;47.03;25.47;;;;;;;4.78;56.45;97780.47;6947045;28;20246;-78
2022/12/15 07:00:23;;;;;;;44.93;25.07;;;;;;;4.63;56.43;97779.75;6947294;28;20365;-77
2022/12/15 07:03:44;;;;;;;43.40;25.47;;;;;;;4.30;57.00;97773.28;6953028;28;20270;-75
2022/12/15 07:07:06;;;;;;;48.00;26.10;;;;;;;4.61;57.27;97770.25;6965050;28;20303;-76
2022/12/15 07:10:29;;;;;;;45.93;24.67;;;;;;;4.88;56.02;97764.09;6973366;28;20337;-76
2022/12/15 07:13:51;;;;;;;46.67;24.40;;;;;;;4.49;55.93;97772.63;6973092;28;20348;-76
2022/12/15 07:17:13;;;;;;;46.60;24.90;;;;;;;4.35;55.99;97765.53;6979079;28;20206;-76
2022/12/15 07:20:34;;;;;;;46.67;27.00;;;;;;;4.17;56.89;97767.81;7000847;28;20323;-76
2022/12/15 07:23:56;;;;;;;43.13;25.40;;;;;;;4.73;56.17;97779.41;7002702;28;20670;-76
2022/12/15 07:27:19;;;;;;;47.73;24.37;;;;;;;4.86;55.57;97779.50;7005632;28;20236;-76
2022/12/15 07:30:40;;;;;;;46.57;26.60;;;;;;;4.87;56.00;97773.97;7005862;28;20238;-76
2022/12/15 07:34:02;;;;;;;45.50;26.33;;;;;;;4.85;55.41;97791.19;7005904;28;20230;-76
2022/12/15 07:37:23;;;;;;;42.93;24.77;;;;;;;5.03;54.33;97778.19;7005287;28;20320;-76
2022/12/15 07:40:45;;;;;;;44.97;23.93;;;;;;;5.01;54.10;97781.03;7005487;28;20306;-76
2022/12/15 07:44:09;;;;;;;41.43;23.50;;;;;;;5.18;54.46;97786.94;7005364;28;20201;-77
2022/12/15 07:47:30;;;;;;;47.37;23.97;;;;;;;5.22;54.34;97778.31;6987106;28;20578;-76
2022/12/15 07:50:56;;;;;;;43.33;24.97;;;;;;;5.08;54.47;97786.44;6949887;28;20252;-76
2022/12/15 07:54:17;;;;;;;47.50;25.73;;;;;;;4.90;55.17;97786.09;6949774;28;20210;-76
2022/12/15 07:57:39;;;;;;;45.67;25.33;;;;;;;4.32;56.13;97789.09;6949105;28;20255;-76
2022/12/15 08:01:03;;;;;;;46.63;25.33;;;;;;;4.71;54.89;97800.13;6950072;28;20230;-76
2022/12/15 08:04:25;;;;;;;40.57;23.60;;;;;;;4.88;54.67;97802.31;6950515;28;20683;-76
2022/12/15 08:07:46;;;;;;;52.70;23.73;;;;;;;4.99;55.38;97825.81;6973079;28;20398;-76
2022/12/15 08:11:09;;;;;;;47.90;24.33;;;;;;;5.31;53.99;97809.19;6976032;28;20287;-76
2022/12/15 08:14:31;;;;;;;40.47;22.20;;;;;;;5.36;52.88;97803.28;6976001;28;20670;-76
2022/12/15 08:17:54;;;;;;;36.30;22.37;;;;;;;5.57;52.83;97829.91;6964259;28;20228;-76
2022/12/15 08:21:15;;;;;;;48.07;26.40;;;;;;;5.22;52.23;97818.38;6971940;28;20599;-78
2022/12/15 08:24:37;;;;;;;46.03;26.73;;;;;;;5.32;53.54;97855.44;6961985;28;20207;-77
2022/12/15 08:27:59;;;;;;;47.30;25.40;;;;;;;5.38;53.71;97847.50;6960734;28;20207;-77
2022/12/15 08:31:23;;;;;;;49.33;26.13;;;;;;;5.60;53.30;97866.94;6976044;28;20222;-77
2022/12/15 08:34:46;;;;;;;46.30;25.03;;;;;;;5.31;53.09;97878.66;6956334;28;20234;-77
2022/12/15 08:38:08;;;;;;;44.23;24.73;;;;;;;5.37;53.16;97858.38;6962023;28;20219;-77
2022/12/15 08:41:31;;;;;;;45.03;24.73;;;;;;;5.49;52.56;97860.28;6975922;28;20504;-77
2022/12/15 08:44:52;;;;;;;53.70;24.67;;;;;;;4.43;56.25;97847.28;6963213;28;20230;-77
2022/12/15 08:48:14;;;;;;;52.50;26.43;;;;;;;4.74;54.83;97847.78;6975963;28;20317;-77
2022/12/15 08:51:37;;;;;;;49.00;25.27;;;;;;;4.77;55.38;97831.41;6964922;28;20221;-77
2022/12/15 08:54:59;;;;;;;45.30;24.33;;;;;;;3.85;57.99;97844.78;6965146;28;20754;-77
2022/12/15 08:58:20;;;;;;;47.33;24.97;;;;;;;4.02;57.00;97856.88;6973846;28;20225;-77
2022/12/15 09:01:42;;;;;;;42.47;24.70;;;;;;;4.76;55.79;97867.09;6973766;28;20348;-77
2022/12/15 09:05:05;;;;;;;47.23;24.93;;;;;;;5.22;55.58;97853.13;6974788;28;20682;-77
2022/12/15 09:08:29;;;;;;;41.83;24.27;;;;;;;5.56;54.27;97855.00;6974731;28;20292;-77
2022/12/15 09:11:51;;;;;;;52.03;25.60;;;;;;;5.68;53.89;97856.94;6974757;28;20354;-77
2022/12/15 09:15:12;;;;;;;43.17;24.40;;;;;;;5.43;54.34;97863.75;6976351;28;20354;-76
2022/12/15 09:18:34;;;;;;;43.77;26.73;;;;;;;5.20;53.32;97849.81;6975665;28;20292;-77
2022/12/15 09:21:56;;;;;;;44.17;25.93;;;;;;;4.39;55.51;97825.50;6974116;28;20614;-75
2022/12/15 09:25:19;;;;;;;50.07;25.57;;;;;;;4.68;54.78;97837.88;6963304;28;20215;-77
2022/12/15 09:28:41;;;;;;;45.73;24.87;;;;;;;5.38;53.36;97844.81;6955963;28;20223;-76
2022/12/15 09:32:03;;;;;;;41.30;24.30;;;;;;;5.14;53.95;97850.56;6973091;28;20340;-77
2022/12/15 09:35:26;;;;;;;40.20;24.00;;;;;;;4.83;54.07;97847.47;6955473;28;20210;-77
2022/12/15 09:38:48;;;;;;;43.07;26.33;;;;;;;4.21;56.08;97843.78;6974339;28;20715;-77
2022/12/15 09:42:23;;;;;;;44.97;24.07;;;;;;;4.69;55.86;97848.38;6960090;28;20219;-77
2022/12/15 09:45:47;;;;;;;39.43;24.77;;;;;;;5.02;54.46;97846.78;6958314;28;20236;-77
2022/12/15 09:49:13;;;;;;;40.63;23.10;;;;;;;5.54;53.92;97844.47;6951954;28;20252;-77
2022/12/15 09:52:46;;;;;;;40.73;24.30;;;;;;;5.77;52.72;97845.03;6945938;28;20277;-78
2022/12/15 09:56:15;;;;;;;38.67;22.73;;;;;;;5.74;51.14;97839.25;6956347;28;20300;-80
2022/12/15 09:59:41;;;;;;;41.50;24.73;;;;;;;5.76;53.87;97830.00;6972064;28;20290;-77
2022/12/15 10:03:22;;;;;;;44.87;24.60;;;;;;;5.95;52.50;97831.97;6945325;28;20270;-77
2022/12/15 10:06:49;;;;;;;36.50;21.87;;;;;;;6.54;50.34;97840.19;6946001;28;20591;-77
2022/12/15 10:10:15;;;;;;;41.17;23.93;;;;;;;5.53;51.76;97828.63;6946087;28;20314;-77
2022/12/15 10:13:41;;;;;;;41.70;24.10;;;;;;;6.12;52.84;97832.44;6945491;28;20238;-77
2022/12/15 10:17:07;;;;;;;44.07;24.50;;;;;;;6.11;52.66;97841.50;6945070;28;20232;-76
2022/12/15 10:20:30;;;;;;;39.00;23.53;;;;;;;6.48;51.02;97841.81;6969478;28;20322;-77
2022/12/15 10:23:53;;;;;;;40.13;23.67;;;;;;;5.49;52.85;97844.25;6974243;28;20724;-77
2022/12/15 10:27:24;;;;;;;39.03;23.50;;;;;;;6.33;52.06;97846.53;6973611;28;20210;-77
2022/12/15 10:30:58;;;;;;;39.10;24.27;;;;;;;5.88;52.60;97860.53;6980097;28;20754;-77
2022/12/15 10:34:26;;;;;;;37.03;23.13;;;;;;;5.85;51.94;97852.09;6973680;28;20194;-77
2022/12/15 10:37:47;;;;;;;40.97;23.80;;;;;;;5.21;52.89;97845.28;6972717;28;20186;-77
2022/12/15 10:41:11;;;;;;;42.63;23.30;;;;;;;4.57;55.35;97801.84;6960944;28;20267;-77
2022/12/15 10:44:37;;;;;;;38.37;22.03;;;;;;;4.51;56.82;97804.44;6950909;28;20733;-78
2022/12/15 10:48:01;;;;;;;39.30;23.37;;;;;;;3.95;58.18;97811.47;6958586;28;20336;-77
2022/12/15 10:51:27;;;;;;;40.47;24.10;;;;;;;4.44;56.51;97804.41;6977923;28;20214;-80
2022/12/15 10:54:51;;;;;;;40.57;23.80;;;;;;;4.58;57.01;97798.16;6963369;28;20222;-79
2022/12/15 10:58:18;;;;;;;35.33;21.57;;;;;;;5.39;55.48;97809.06;6946916;28;20722;-76
2022/12/15 11:01:39;;;;;;;34.93;22.40;;;;;;;5.81;53.72;97794.66;6951556;28;20234;-77
2022/12/15 11:05:03;;;;;;;41.60;23.10;;;;;;;6.28;52.49;97803.47;6952454;28;20307;-77
2022/12/15 11:08:26;;;;;;;43.83;24.10;;;;;;;6.55;52.11;97799.00;6951632;28;20230;-77
2022/12/15 11:15:49;;;;;;;35.00;22.43;;;;;;;6.48;50.97;97782.91;6971397;28;20207;-81
2022/12/15 11:19:14;;;;;;;37.27;23.27;;;;;;;6.19;51.29;97731.63;6975535;28;20234;-79
2022/12/15 11:22:41;;;;;;;38.80;24.30;;;;;;;6.28;52.60;97752.63;6980895;28;20213;-80
2022/12/15 11:26:12;;;;;;;36.13;22.10;;;;;;;6.29;51.48;97719.47;6981602;28;20258;-79
2022/12/15 11:29:42;;;;;;;35.60;21.67;;;;;;;6.37;51.48;97715.78;6957660;28;20234;-78
2022/12/15 11:33:03;;;;;;;40.17;22.40;;;;;;;6.48;51.17;97739.28;6956412;28;20254;-78
2022/12/15 11:36:42;;;;;;;34.87;22.53;;;;;;;6.75;50.89;97768.53;6978383;28;20238;-79
2022/12/15 11:40:17;;;;;;;36.07;22.33;;;;;;;6.62;51.46;97773.03;6978067;28;20282;-77
2022/12/15 11:43:59;;;;;;;37.10;21.40;;;;;;;7.05;50.41;97771.59;6977147;28;20330;-77
2022/12/15 11:47:26;;;;;;;37.17;22.57;;;;;;;7.40;49.86;97767.59;6976833;28;20239;-77
2022/12/15 11:50:52;;;;;;;35.07;21.53;;;;;;;7.22;50.65;97762.06;6977623;28;20227;-76
2022/12/15 11:54:19;;;;;;;39.50;23.07;;;;;;;6.81;50.38;97732.03;6976195;28;20352;-77
2022/12/15 11:57:52;;;;;;;35.10;21.60;;;;;;;6.98;50.77;97739.44;6976304;28;20327;-77
2022/12/15 12:01:24;;;;;;;37.03;22.53;;;;;;;6.31;53.02;97736.16;6963066;28;20328;-77
2022/12/15 12:04:52;;;;;;;40.50;23.00;;;;;;;6.84;50.58;97737.81;6948629;28;20271;-76
2022/12/15 12:08:27;;;;;;;36.47;21.90;;;;;;;6.03;52.34;97734.66;6949603;28;20254;-76
2022/12/15 12:12:12;;;;;;;36.63;22.57;;;;;;;5.38;53.92;97692.50;6949235;28;20192;-77
2022/12/15 12:15:41;;;;;;;41.67;23.53;;;;;;;4.53;57.89;97699.16;6948535;28;20237;-76
2022/12/15 12:19:05;;;;;;;40.53;24.23;;;;;;;4.71;57.04;97683.47;6966455;28;20233;-76
2022/12/15 12:22:30;;;;;;;39.13;22.70;;;;;;;5.29;55.85;97674.13;6976877;28;20935;-77
2022/12/15 12:25:58;;;;;;;34.90;21.30;;;;;;;6.51;52.97;97675.44;6975536;28;20206;-77
2022/12/15 12:29:23;;;;;;;37.87;23.13;;;;;;;7.03;51.27;97672.66;6950349;28;20226;-77
2022/12/15 12:32:51;;;;;;;34.23;21.67;;;;;;;7.04;51.32;97674.31;6948422;28;20215;-76
2022/12/15 12:36:15;;;;;;;37.60;22.73;;;;;;;7.33;51.70;97678.31;6948563;28;20834;-75
2022/12/15 12:39:37;;;;;;;37.57;22.23;;;;;;;7.19;51.45;97666.03;6947399;28;20748;-75
2022/12/15 12:43:00;;;;;;;32.63;22.67;;;;;;;7.59;49.64;97654.06;6957379;28;20223;-75
2022/12/15 12:46:25;;;;;;;35.40;21.40;;;;;;;8.03;48.66;97667.44;6975699;28;20288;-77
2022/12/15 12:49:50;;;;;;;37.40;22.37;;;;;;;7.89;49.26;97653.28;6976142;28;20219;-77
2022/12/15 12:53:25;;;;;;;31.53;20.37;;;;;;;8.25;49.32;97663.41;6977167;28;20622;-78
2022/12/15 12:56:46;;;;;;;32.20;19.67;;;;;;;8.57;47.60;97663.13;6975200;28;20269;-78
2022/12/15 13:00:16;;;;;;;34.53;21.47;;;;;;;7.94;49.43;97645.41;6949494;28;20259;-77
2022/12/15 13:03:39;;;;;;;30.23;19.37;;;;;;;8.41;47.45;97642.19;6947986;28;20244;-77
2022/12/15 13:07:03;;;;;;;31.07;20.00;;;;;;;8.41;47.94;97639.50;6948309;28;20696;-78
2022/12/15 13:10:26;;;;;;;32.60;20.53;;;;;;;8.56;47.31;97655.28;6948109;28;20251;-77
2022/12/15 13:13:48;;;;;;;35.93;22.03;;;;;;;8.13;47.97;97636.38;6950232;28;20625;-77
2022/12/15 13:17:15;;;;;;;31.43;19.90;;;;;;;7.90;48.10;97641.50;6974128;28;20235;-78
2022/12/15 13:20:37;;;;;;;32.10;20.80;;;;;;;7.72;49.45;97629.88;6962029;28;20235;-77
2022/12/15 13:23:59;;;;;;;34.30;21.17;;;;;;;7.61;49.66;97625.19;6977770;28;20235;-78
2022/12/15 13:27:22;;;;;;;33.23;19.83;;;;;;;7.66;48.52;97604.72;6978922;28;20235;-77
2022/12/15 13:31:11;;;;;;;33.37;20.30;;;;;;;7.54;49.67;97614.50;6959776;28;20261;-77
2022/12/15 13:34:37;;;;;;;35.67;21.37;;;;;;;7.41;49.99;97609.19;6951579;28;20247;-78
2022/12/15 13:38:01;;;;;;;32.17;20.17;;;;;;;7.06;50.33;97594.53;6949459;28;20208;-78
2022/12/15 13:41:23;;;;;;;32.67;20.93;;;;;;;6.89;51.46;97587.19;6950924;28;20691;-77
2022/12/15 13:44:50;;;;;;;37.43;22.17;;;;;;;7.02;51.27;97587.94;6950238;28;20212;-78
2022/12/15 13:48:16;;;;;;;35.03;21.23;;;;;;;7.41;50.42;97582.41;6960173;28;20233;-78
2022/12/15 13:51:42;;;;;;;36.90;21.20;;;;;;;7.31;51.40;97583.91;6978100;28;20212;-79
2022/12/15 13:55:14;;;;;;;34.93;21.93;;;;;;;7.27;50.90;97582.69;6974629;28;20268;-78
2022/12/15 13:58:39;;;;;;;35.27;21.37;;;;;;;7.45;50.86;97582.78;6964291;28;20431;-77
2022/12/15 14:02:02;;;;;;;32.23;19.67;;;;;;;7.54;50.00;97587.66;6945475;28;20319;-77
2022/12/15 14:05:24;;;;;;;32.27;20.77;;;;;;;7.39;49.97;97552.31;6945503;28;20300;-78
2022/12/15 14:08:47;;;;;;;35.03;21.20;;;;;;;7.58;50.74;97588.06;6946021;28;20237;-78
2022/12/15 14:12:12;;;;;;;37.77;22.53;;;;;;;7.48;51.28;97583.16;6949369;28;20194;-77
2022/12/15 14:15:34;;;;;;;29.33;18.13;;;;;;;7.58;50.46;97577.34;6961536;28;20273;-78
2022/12/15 14:19:14;;;;;;;39.57;21.20;;;;;;;7.06;51.93;97574.94;6954106;28;20265;-78
2022/12/15 14:22:35;;;;;;;35.63;21.23;;;;;;;7.07;51.30;97587.31;6958133;28;20535;-78
2022/12/15 14:26:04;;;;;;;38.00;21.73;;;;;;;6.43;52.64;97592.63;6972402;28;20223;-78
2022/12/15 14:29:26;;;;;;;37.43;21.07;;;;;;;6.18;53.33;97588.16;6970811;28;20230;-78
2022/12/15 14:32:51;;;;;;;36.30;21.27;;;;;;;6.96;52.45;97604.06;6971122;28;20611;-77
2022/12/15 14:36:16;;;;;;;32.87;20.23;;;;;;;6.95;52.29;97580.97;6944714;28;20215;-77
2022/12/15 14:39:41;;;;;;;30.57;20.40;;;;;;;7.29;51.71;97577.91;6955322;28;20317;-77
2022/12/15 14:43:03;;;;;;;36.20;21.10;;;;;;;7.44;51.28;97584.66;6964793;28;20313;-75
2022/12/15 14:46:25;;;;;;;32.43;20.47;;;;;;;7.46;51.05;97579.91;6972162;28;20294;-76
2022/12/15 14:49:48;;;;;;;36.57;22.57;;;;;;;7.34;51.55;97578.94;6972514;28;20773;-77
2022/12/15 14:53:16;;;;;;;35.43;21.00;;;;;;;7.44;51.28;97597.22;6972723;28;20256;-77
2022/12/15 14:56:38;;;;;;;36.67;22.93;;;;;;;7.21;51.80;97596.94;6933990;28;1074616;-76
2022/12/15 15:00:00;;;;;;;35.70;21.53;;;;;;;7.29;51.98;97602.03;6973891;28;20234;-76
2022/12/15 15:03:24;;;;;;;37.77;21.87;;;;;;;7.27;52.33;97599.59;6973182;28;20230;-77
2022/12/15 15:06:45;;;;;;;38.70;22.77;;;;;;;6.69;53.49;97594.44;6977934;28;20244;-76
2022/12/15 15:10:21;;;;;;;38.97;23.43;;;;;;;6.52;54.24;97574.50;6973936;28;20821;-76
2022/12/15 15:13:42;;;;;;;40.00;24.67;;;;;;;6.76;53.98;97601.44;6973505;28;20198;-76
2022/12/15 15:17:08;;;;;;;51.83;31.10;;;;;;;6.63;54.39;97600.63;6973375;28;20297;-76
2022/12/15 15:20:33;;;;;;;39.27;24.30;;;;;;;6.73;54.42;97582.28;6973045;28;20226;-78
2022/12/15 15:23:59;;;;;;;43.07;22.67;;;;;;;6.85;53.87;97586.75;6971532;28;20210;-76
2022/12/15 15:27:35;;;;;;;34.90;22.47;;;;;;;6.79;54.42;97601.00;6946393;28;20620;-76
2022/12/15 15:30:59;;;;;;;39.20;23.13;;;;;;;6.54;54.86;97607.25;6947091;28;20233;-75
2022/12/15 15:34:20;;;;;;;34.90;20.77;;;;;;;6.78;53.67;97599.34;6947058;28;20298;-75
2022/12/15 15:37:42;;;;;;;32.17;19.23;;;;;;;6.61;53.54;97574.06;6946272;28;20290;-76
2022/12/15 15:41:15;;;;;;;33.17;20.70;;;;;;;6.81;53.47;97606.16;6946090;28;20370;-75
2022/12/15 15:44:39;;;;;;;29.20;18.73;;;;;;;7.13;52.66;97605.22;6987332;28;20217;-76
2022/12/15 15:48:00;;;;;;;33.87;19.70;;;;;;;6.47;53.48;97607.25;6963495;28;20199;-75
2022/12/15 15:51:24;;;;;;;33.00;19.97;;;;;;;6.01;54.30;97598.44;6984546;28;20245;-76
2022/12/15 15:54:45;;;;;;;31.27;20.03;;;;;;;6.72;53.84;97613.59;6975140;28;20305;-75
2022/12/15 15:58:11;;;;;;;29.47;19.30;;;;;;;6.48;53.09;97608.91;6971858;28;20311;-75
2022/12/15 16:01:34;;;;;;;29.50;19.80;;;;;;;6.44;53.09;97621.06;6951803;28;20230;-75
2022/12/15 16:04:55;;;;;;;29.37;19.27;;;;;;;5.86;54.88;97624.56;6975028;28;20305;-75
2022/12/15 16:08:18;;;;;;;28.77;18.73;;;;;;;6.13;54.04;97595.97;6975950;28;20264;-75
2022/12/15 16:11:40;;;;;;;31.23;19.63;;;;;;;6.72;52.93;97597.50;6976284;28;20296;-75
2022/12/15 16:15:02;;;;;;;27.83;17.90;;;;;;;6.68;53.18;97593.63;6975376;28;20297;-75
2022/12/15 16:18:25;;;;;;;29.03;18.60;;;;;;;6.89;51.77;97587.97;6967132;28;20317;-77
2022/12/15 16:21:49;;;;;;;30.50;19.07;;;;;;;5.81;53.97;97592.25;6967962;28;20229;-76
2022/12/15 16:25:16;;;;;;;26.83;17.23;;;;;;;6.39;53.66;97586.06;6950877;28;20217;-76
2022/12/15 16:28:37;;;;;;;28.40;17.77;;;;;;;6.40;53.16;97595.75;6951773;28;20237;-78
2022/12/15 16:31:59;;;;;;;29.73;16.93;;;;;;;6.89;51.66;97581.81;6962861;28;20234;-78
2022/12/15 16:35:24;;;;;;;30.47;20.27;;;;;;;6.40;52.81;97600.25;6950961;28;20249;-78
2022/12/15 16:38:45;;;;;;;28.57;17.73;;;;;;;6.36;52.95;97581.13;6948471;28;20316;-78
2022/12/15 16:42:11;;;;;;;28.40;17.60;;;;;;;6.14;53.39;97590.41;6948619;28;20273;-78
2022/12/15 16:45:33;;;;;;;30.77;18.87;;;;;;;6.45;52.69;97592.44;6974068;28;20207;-78
2022/12/15 16:48:54;;;;;;;26.27;17.03;;;;;;;6.64;52.26;97588.88;6953754;28;20365;-79
2022/12/15 16:52:20;;;;;;;27.60;17.10;;;;;;;6.19;52.61;97550.47;6948445;28;20261;-78
2022/12/15 16:55:42;;;;;;;27.07;17.73;;;;;;;6.16;53.16;97571.47;6946592;28;20211;-78
2022/12/15 16:59:03;;;;;;;26.40;16.97;;;;;;;6.41;51.99;97600.06;6962823;28;20299;-78
2022/12/15 17:02:27;;;;;;;27.63;17.17;;;;;;;6.30;52.56;97575.78;6983644;28;20250;-78
2022/12/15 17:05:50;;;;;;;29.33;18.43;;;;;;;6.49;51.78;97589.13;6964572;28;20297;-77
2022/12/15 17:09:18;;;;;;;29.23;18.20;;;;;;;6.50;52.44;97577.41;6947617;28;20356;-78
2022/12/15 17:12:39;;;;;;;27.47;17.60;;;;;;;6.50;51.99;97572.03;6974285;28;20656;-78
2022/12/15 17:16:01;;;;;;;28.27;18.20;;;;;;;6.52;52.43;97579.84;6974179;28;20574;-78
2022/12/15 17:19:25;;;;;;;29.13;18.23;;;;;;;6.71;52.27;97558.38;6950294;28;20227;-79
2022/12/15 17:22:50;;;;;;;24.40;17.17;;;;;;;6.73;51.77;97552.81;6966126;28;20230;-78
2022/12/15 17:26:15;;;;;;;26.53;17.03;;;;;;;6.67;50.95;97533.03;6957996;28;20203;-79
2022/12/15 17:29:37;;;;;;;29.63;18.57;;;;;;;6.62;51.38;97537.41;6978590;28;20656;-81
2022/12/15 17:32:58;;;;;;;29.00;16.80;;;;;;;7.02;51.11;97534.34;6978401;28;20202;-78
2022/12/15 17:36:22;;;;;;;32.53;19.10;;;;;;;6.88;51.23;97530.09;6967397;28;20220;-78
2022/12/15 17:39:49;;;;;;;27.97;17.97;;;;;;;6.60;52.45;97532.25;6967804;28;20354;-78
2022/12/15 17:43:14;;;;;;;42.03;26.43;;;;;;;5.69;54.89;97520.84;6982800;28;20244;-78
2022/12/15 17:46:36;;;;;;;37.53;23.20;;;;;;;6.04;54.67;97528.47;6960880;28;20214;-78
2022/12/15 17:49:58;;;;;;;34.33;21.73;;;;;;;6.39;53.17;97495.06;6967330;28;20291;-78
2022/12/15 17:53:21;;;;;;;29.67;18.70;;;;;;;6.40;53.24;97510.09;6968922;28;20262;-78
2022/12/15 17:56:45;;;;;;;31.57;19.33;;;;;;;6.24;53.40;97526.59;6960371;28;20591;-78
2022/12/15 18:00:18;;;;;;;33.80;19.47;;;;;;;6.49;52.38;97529.41;6961252;28;20319;-78
2022/12/15 18:03:40;;;;;;;31.13;19.83;;;;;;;5.61;54.28;97495.13;6957602;28;20285;-78
2022/12/15 18:07:02;;;;;;;31.20;20.50;;;;;;;6.23;53.35;97530.28;6973812;28;20229;-78
2022/12/15 18:10:27;;;;;;;33.10;20.73;;;;;;;6.08;54.11;97542.25;6947743;28;20692;-77
2022/12/15 18:13:49;;;;;;;36.00;21.03;;;;;;;5.90;54.00;97534.03;6946766;28;20425;-77